Maersk Nimes — VRFO7 — position and weather

sailwx.info

Track history (hours):
 
Tides and Currents Weather Stations Pressure Air Temp Water Temp Dewpoint Dewpoint Depression Visibility Wind Speed Wind Dir Waves Ship Positions

Maersk Nimes

Last reported at 2017-Mar-24 23:09 UTC. Time now 2017-Mar-25 00:02 UTC.
Position N 59°30' E 023°06'.

Length 210 m; draft 10.5 m.

Type: Cargo ship. MMSI: 477559200.

Date/timePositionNaut miles runAvg speedWind from/ knotsBaromVisibWave heightAir tempDewpointWater temp
2017-Mar-24 23:09N 59°30' E 023°06'1016.1
2017-Mar-24 22:33N 59°27' E 022°48'1716.5
2017-Mar-24 21:33N 59°18' E 022°20'1716.8
2017-Mar-24 20:31N 59°07' E 021°53'23616.8
2017-Mar-24 06:30N 55°55' E 017°39'1617.3
2017-Mar-24 05:33N 55°52' E 017°10'1717.2
2017-Mar-24 04:33N 55°48' E 016°40'1717.3
2017-Mar-24 03:34N 55°43' E 016°11'1716.9
2017-Mar-24 02:34N 55°38' E 015°42'1717.3
2017-Mar-24 01:34N 55°34' E 015°12'1717.3
2017-Mar-24 00:34N 55°25' E 014°45'1717.4
2017-Mar-23 23:34N 55°13' E 014°24'1717.2
2017-Mar-23 22:33N 55°00' E 014°04'1717.0
2017-Mar-23 21:34N 54°55' E 013°36'1717.3
2017-Mar-23 20:34N 54°49' E 013°07'2117.0
2017-Mar-23 19:21N 54°41' E 012°35'2614.4
2017-Mar-23 17:33N 54°25' E 011°60'1716.6
2017-Mar-23 16:34N 54°29' E 011°32'1717.1
2017-Mar-23 15:34N 54°35' E 011°05'1414.2
2017-Mar-23 14:34N 54°45' E 010°47'1615.7
2017-Mar-23 13:34N 54°59' E 010°59'1616.5
2017-Mar-23 12:34N 55°15' E 011°05'3616.2
2017-Mar-23 10:19N 55°50' E 010°50'1316.9
2017-Mar-23 09:32N 56°01' E 011°04'1717.0
2017-Mar-23 08:32N 56°15' E 011°21'3516.9
2017-Mar-23 06:27N 56°46' E 011°51'1617.4
2017-Mar-23 05:33N 57°01' E 011°42'1817.2
2017-Mar-23 04:31N 57°17' E 011°29'1617.1
2017-Mar-23 03:33N 57°32' E 011°14'1717.5
2017-Mar-23 02:33N 57°44' E 010°51'1211.9
2017-Mar-23 01:33N 57°48' E 010°30'1817.9
2017-Mar-23 00:32N 57°45' E 009°56'1717.4
2017-Mar-22 23:33N 57°41' E 009°25'2317.8
2017-Mar-22 22:15N 57°30' E 008°47'14817.0
2017-Mar-22 13:33N 55°21' E 006°39'1717.1
2017-Mar-22 12:33N 55°04' E 006°35'1515.2
2017-Mar-22 11:33N 54°50' E 006°44'1717.0
2017-Mar-22 10:33N 54°37' E 007°04'5117.1
2017-Mar-22 07:33N 53°53' E 007°49'1515.2
2017-Mar-22 06:33N 53°46' E 008°12'1515.1
2017-Mar-22 05:33N 53°36' E 008°31'0 0.4
2017-Mar-22 04:32N 53°35' E 008°31'0 0.0
2017-Mar-22 03:32N 53°35' E 008°31'0 0.0
2017-Mar-22 02:33N 53°35' E 008°31'0 0.0
2017-Mar-22 01:33N 53°35' E 008°31'0 0.0
2017-Mar-22 00:33N 53°35' E 008°31'0 0.0
2017-Mar-21 23:33N 53°35' E 008°31'0 0.0
2017-Mar-21 22:32N 53°35' E 008°31'0 0.0
2017-Mar-21 21:33N 53°36' E 008°31'0 0.0
2017-Mar-21 20:33N 53°35' E 008°31'0 0.0
2017-Mar-21 19:31N 53°36' E 008°31'0 0.0
2017-Mar-21 18:33N 53°35' E 008°31'0 0.0
2017-Mar-21 17:32N 53°35' E 008°31'0 0.0
2017-Mar-21 16:33N 53°35' E 008°31'0 0.0
2017-Mar-21 15:33N 53°35' E 008°31'0 0.0
2017-Mar-21 14:33N 53°35' E 008°31'0 0.0
2017-Mar-21 13:33N 53°35' E 008°31'1 1.2
2017-Mar-21 12:33N 53°36' E 008°30'1716.7
2017-Mar-21 11:33N 53°47' E 008°09'1212.3
2017-Mar-21 10:33N 53°55' E 007°52'0 0.0
2017-Mar-21 09:32N 53°55' E 007°52'0 0.0
2017-Mar-21 08:32N 53°55' E 007°52'0 0.0
2017-Mar-21 07:05N 53°55' E 007°52'0 0.0
2017-Mar-21 06:29N 53°55' E 007°52'0 0.0
2017-Mar-21 05:32N 53°55' E 007°52'0 0.0
2017-Mar-21 04:32N 53°55' E 007°52'0 0.0
2017-Mar-21 03:32N 53°55' E 007°52'0 0.0
2017-Mar-21 02:32N 53°55' E 007°52'0 0.0
2017-Mar-21 01:32N 53°55' E 007°52'0 0.0
2017-Mar-21 00:32N 53°55' E 007°52'0 0.0
2017-Mar-20 23:32N 53°55' E 007°52'0 0.0
2017-Mar-20 22:31N 53°55' E 007°52'0 0.0
2017-Mar-20 21:31N 53°55' E 007°52'0 0.0
2017-Mar-20 20:31N 53°55' E 007°52'0 0.1
2017-Mar-20 19:33N 53°55' E 007°52'0 0.1
2017-Mar-20 18:31N 53°55' E 007°52'6 6.2
2017-Mar-20 17:33N 53°59' E 008°00'1212.4
2017-Mar-20 16:33N 53°60' E 008°21'1414.4
2017-Mar-20 15:33N 53°53' E 008°43'1010.5
2017-Mar-20 14:33N 53°51' E 009°00'9 9.4
2017-Mar-20 13:33N 53°52' E 009°16'1414.1
2017-Mar-20 12:34N 53°41' E 009°30'1211.9
2017-Mar-20 11:33N 53°34' E 009°46'8 8.2
2017-Mar-20 10:33N 53°32' E 009°60'0 0.0
2017-Mar-20 09:34N 53°32' E 009°60'0 0.0
2017-Mar-20 08:34N 53°32' E 009°60'0 0.0
2017-Mar-20 07:33N 53°32' E 009°60'0 0.0
2017-Mar-20 06:33N 53°32' E 009°60'0 0.0
2017-Mar-20 05:33N 53°32' E 009°60'0 0.0
2017-Mar-20 04:33N 53°32' E 009°60'0 0.0
2017-Mar-20 03:34N 53°32' E 009°60'0 0.0
2017-Mar-20 02:31N 53°32' E 009°60'0 0.0
2017-Mar-20 01:31N 53°32' E 009°60'0 0.0
2017-Mar-20 00:31N 53°32' E 009°60'0 0.0
2017-Mar-19 23:34N 53°32' E 009°60'0 0.0
2017-Mar-19 22:33N 53°32' E 009°60'0 0.0
2017-Mar-19 21:33N 53°32' E 009°60'0 0.0
2017-Mar-19 20:33N 53°32' E 009°60'0 0.0
2017-Mar-19 19:33N 53°32' E 009°60'0 0.0
2017-Mar-19 18:33N 53°32' E 009°60'0 0.0
2017-Mar-19 17:33N 53°32' E 009°60'3 3.1
2017-Mar-19 16:33N 53°32' E 009°55'1211.7
2017-Mar-19 15:34N 53°36' E 009°36'1212.4
2017-Mar-19 14:33N 53°46' E 009°24'1111.4
2017-Mar-19 13:33N 53°53' E 009°08'1313.5
2017-Mar-19 12:33N 53°51' E 008°45'1313.3
2017-Mar-19 11:33N 53°59' E 008°27'1414.4
2017-Mar-19 10:33N 53°59' E 008°02'1010.3
2017-Mar-19 09:33N 54°01' E 007°45'0 0.5
2017-Mar-19 08:33N 54°00' E 007°45'2 1.5
2017-Mar-19 07:33N 53°59' E 007°45'9 9.0
2017-Mar-19 06:33N 53°55' E 007°31'8311.0
2017-Mar-18 23:04N 53°32' E 005°17'712.6
2017-Mar-18 22:32N 53°30' E 005°06'2512.3
2017-Mar-18 20:32N 53°14' E 004°35'1313.1
2017-Mar-18 19:33N 53°03' E 004°24'1312.8
2017-Mar-18 18:33N 52°52' E 004°15'1312.6
2017-Mar-18 17:33N 52°41' E 004°03'1212.0
2017-Mar-18 16:33N 52°30' E 003°55'1111.4
2017-Mar-18 15:33N 52°19' E 003°52'1110.6
2017-Mar-18 14:33N 52°09' E 003°54'9 8.9
2017-Mar-18 13:33N 52°00' E 004°00'3 2.9
2017-Mar-18 12:33N 51°58' E 003°60'0 0.4
2017-Mar-18 11:33N 51°57' E 004°00'0 0.0
2017-Mar-18 10:32N 51°57' E 004°00'0 0.0
2017-Mar-18 09:29N 51°57' E 004°00'0 0.0
2017-Mar-18 08:32N 51°57' E 004°00'0 0.0
2017-Mar-18 07:32N 51°57' E 004°00'0 0.0
2017-Mar-18 06:32N 51°57' E 004°00'0 0.0
2017-Mar-18 05:31N 51°57' E 004°00'0 0.0
2017-Mar-18 04:33N 51°57' E 004°00'0 0.0
2017-Mar-18 03:30N 51°57' E 004°00'0 0.0
2017-Mar-18 02:33N 51°57' E 004°00'0 0.0
2017-Mar-18 01:33N 51°57' E 004°00'0 0.0
2017-Mar-18 00:33N 51°57' E 004°00'0 0.0
2017-Mar-17 23:33N 51°57' E 004°00'0 0.0
2017-Mar-17 22:33N 51°57' E 004°00'0 0.0
2017-Mar-17 21:33N 51°57' E 004°00'0 0.0
2017-Mar-17 20:33N 51°57' E 004°00'0 0.0
2017-Mar-17 19:33N 51°57' E 004°00'0 0.0
2017-Mar-17 18:34N 51°57' E 004°00'0 0.0
2017-Mar-17 17:33N 51°57' E 004°00'0 0.0
2017-Mar-17 16:33N 51°57' E 004°00'0 0.0
2017-Mar-17 15:33N 51°57' E 004°00'0 0.0
2017-Mar-17 14:33N 51°57' E 004°00'0 0.0
2017-Mar-17 13:33N 51°57' E 004°00'3 2.6
2017-Mar-17 12:33N 51°58' E 004°04'6 6.3
2017-Mar-17 11:34N 51°59' E 003°54'1111.3
2017-Mar-17 10:33N 51°57' E 003°36'4614.0
2017-Mar-17 07:17N 51°41' E 002°27'1115.5
2017-Mar-17 06:33N 51°32' E 002°16'1615.6
2017-Mar-17 05:33N 51°17' E 002°08'1515.2
2017-Mar-17 04:33N 51°08' E 001°48'1616.3
2017-Mar-17 03:33N 50°56' E 001°30'1616.2
2017-Mar-17 02:33N 50°42' E 001°20'3215.7
2017-Mar-17 00:31N 50°26' E 000°36'1516.1
2017-Mar-16 23:33N 50°22' E 000°12'1717.1
2017-Mar-16 22:33N 50°18' W 000°13'1817.7
2017-Mar-16 21:33N 50°13' W 000°40'1919.2
2017-Mar-16 20:34N 50°08' W 001°09'1818.1
2017-Mar-16 19:33N 50°04' W 001°37'1716.9
2017-Mar-16 18:34N 49°60' W 002°02'1916.6
2017-Mar-16 17:26N 49°54' W 002°30'1516.2
2017-Mar-16 16:32N 49°50' W 002°51'1616.3
2017-Mar-16 15:33N 49°46' W 003°15'1616.1
2017-Mar-16 14:33N 49°44' W 003°40'1616.2
2017-Mar-16 13:33N 49°40' W 004°04'1616.2
2017-Mar-16 12:33N 49°36' W 004°29'1616.0
2017-Mar-16 11:33N 49°32' W 004°53'1616.3
2017-Mar-16 10:33N 49°29' W 005°17'1916.8
2017-Mar-16 09:27N 49°25' W 005°45'1617.3
2017-Mar-16 08:33N 49°22' W 006°08'1817.7
2017-Mar-16 07:33N 49°19' W 006°35'2517.9
2017-Mar-16 06:08N 49°15' W 007°14'20516.9
2017-Mar-15 18:00N 48°30' W 012°18'   180 / 81030.0 5.4 15.013.217.0
Track history (hours):
 
Tides and Currents Weather Stations Pressure Air Temp Water Temp Dewpoint Dewpoint Depression Visibility Wind Speed Wind Dir Waves Ship Positions

Maersk Nimes

Last reported at 2017-Mar-24 23:09 UTC. Time now 2017-Mar-25 00:02 UTC.
Position N 59°30' E 023°06'.

Length 210 m; draft 10.5 m.

Type: Cargo ship. MMSI: 477559200.

Date/timePositionNaut miles runAvg speedWind from/ knotsBaromVisibWave heightAir tempDewpointWater temp
2017-Mar-24 23:09N 59°30' E 023°06'1016.1
2017-Mar-24 22:33N 59°27' E 022°48'1716.5
2017-Mar-24 21:33N 59°18' E 022°20'1716.8
2017-Mar-24 20:31N 59°07' E 021°53'23616.8
2017-Mar-24 06:30N 55°55' E 017°39'1617.3
2017-Mar-24 05:33N 55°52' E 017°10'1717.2
2017-Mar-24 04:33N 55°48' E 016°40'1717.3
2017-Mar-24 03:34N 55°43' E 016°11'1716.9
2017-Mar-24 02:34N 55°38' E 015°42'1717.3
2017-Mar-24 01:34N 55°34' E 015°12'1717.3
2017-Mar-24 00:34N 55°25' E 014°45'1717.4
2017-Mar-23 23:34N 55°13' E 014°24'1717.2
2017-Mar-23 22:33N 55°00' E 014°04'1717.0
2017-Mar-23 21:34N 54°55' E 013°36'1717.3
2017-Mar-23 20:34N 54°49' E 013°07'2117.0
2017-Mar-23 19:21N 54°41' E 012°35'2614.4
2017-Mar-23 17:33N 54°25' E 011°60'1716.6
2017-Mar-23 16:34N 54°29' E 011°32'1717.1
2017-Mar-23 15:34N 54°35' E 011°05'1414.2
2017-Mar-23 14:34N 54°45' E 010°47'1615.7
2017-Mar-23 13:34N 54°59' E 010°59'1616.5
2017-Mar-23 12:34N 55°15' E 011°05'3616.2
2017-Mar-23 10:19N 55°50' E 010°50'1316.9
2017-Mar-23 09:32N 56°01' E 011°04'1717.0
2017-Mar-23 08:32N 56°15' E 011°21'3516.9
2017-Mar-23 06:27N 56°46' E 011°51'1617.4
2017-Mar-23 05:33N 57°01' E 011°42'1817.2
2017-Mar-23 04:31N 57°17' E 011°29'1617.1
2017-Mar-23 03:33N 57°32' E 011°14'1717.5
2017-Mar-23 02:33N 57°44' E 010°51'1211.9
2017-Mar-23 01:33N 57°48' E 010°30'1817.9
2017-Mar-23 00:32N 57°45' E 009°56'1717.4
2017-Mar-22 23:33N 57°41' E 009°25'2317.8
2017-Mar-22 22:15N 57°30' E 008°47'14817.0
2017-Mar-22 13:33N 55°21' E 006°39'1717.1
2017-Mar-22 12:33N 55°04' E 006°35'1515.2
2017-Mar-22 11:33N 54°50' E 006°44'1717.0
2017-Mar-22 10:33N 54°37' E 007°04'5117.1
2017-Mar-22 07:33N 53°53' E 007°49'1515.2
2017-Mar-22 06:33N 53°46' E 008°12'1515.1
2017-Mar-22 05:33N 53°36' E 008°31'0 0.4
2017-Mar-22 04:32N 53°35' E 008°31'0 0.0
2017-Mar-22 03:32N 53°35' E 008°31'0 0.0
2017-Mar-22 02:33N 53°35' E 008°31'0 0.0
2017-Mar-22 01:33N 53°35' E 008°31'0 0.0
2017-Mar-22 00:33N 53°35' E 008°31'0 0.0
2017-Mar-21 23:33N 53°35' E 008°31'0 0.0
2017-Mar-21 22:32N 53°35' E 008°31'0 0.0
2017-Mar-21 21:33N 53°36' E 008°31'0 0.0
2017-Mar-21 20:33N 53°35' E 008°31'0 0.0
2017-Mar-21 19:31N 53°36' E 008°31'0 0.0
2017-Mar-21 18:33N 53°35' E 008°31'0 0.0
2017-Mar-21 17:32N 53°35' E 008°31'0 0.0
2017-Mar-21 16:33N 53°35' E 008°31'0 0.0
2017-Mar-21 15:33N 53°35' E 008°31'0 0.0
2017-Mar-21 14:33N 53°35' E 008°31'0 0.0
2017-Mar-21 13:33N 53°35' E 008°31'1 1.2
2017-Mar-21 12:33N 53°36' E 008°30'1716.7
2017-Mar-21 11:33N 53°47' E 008°09'1212.3
2017-Mar-21 10:33N 53°55' E 007°52'0 0.0
2017-Mar-21 09:32N 53°55' E 007°52'0 0.0
2017-Mar-21 08:32N 53°55' E 007°52'0 0.0
2017-Mar-21 07:05N 53°55' E 007°52'0 0.0
2017-Mar-21 06:29N 53°55' E 007°52'0 0.0
2017-Mar-21 05:32N 53°55' E 007°52'0 0.0
2017-Mar-21 04:32N 53°55' E 007°52'0 0.0
2017-Mar-21 03:32N 53°55' E 007°52'0 0.0
2017-Mar-21 02:32N 53°55' E 007°52'0 0.0
2017-Mar-21 01:32N 53°55' E 007°52'0 0.0
2017-Mar-21 00:32N 53°55' E 007°52'0 0.0
2017-Mar-20 23:32N 53°55' E 007°52'0 0.0
2017-Mar-20 22:31N 53°55' E 007°52'0 0.0
2017-Mar-20 21:31N 53°55' E 007°52'0 0.0
2017-Mar-20 20:31N 53°55' E 007°52'0 0.1
2017-Mar-20 19:33N 53°55' E 007°52'0 0.1
2017-Mar-20 18:31N 53°55' E 007°52'6 6.2
2017-Mar-20 17:33N 53°59' E 008°00'1212.4
2017-Mar-20 16:33N 53°60' E 008°21'1414.4
2017-Mar-20 15:33N 53°53' E 008°43'1010.5
2017-Mar-20 14:33N 53°51' E 009°00'9 9.4
2017-Mar-20 13:33N 53°52' E 009°16'1414.1
2017-Mar-20 12:34N 53°41' E 009°30'1211.9
2017-Mar-20 11:33N 53°34' E 009°46'8 8.2
2017-Mar-20 10:33N 53°32' E 009°60'0 0.0
2017-Mar-20 09:34N 53°32' E 009°60'0 0.0
2017-Mar-20 08:34N 53°32' E 009°60'0 0.0
2017-Mar-20 07:33N 53°32' E 009°60'0 0.0
2017-Mar-20 06:33N 53°32' E 009°60'0 0.0
2017-Mar-20 05:33N 53°32' E 009°60'0 0.0
2017-Mar-20 04:33N 53°32' E 009°60'0 0.0
2017-Mar-20 03:34N 53°32' E 009°60'0 0.0
2017-Mar-20 02:31N 53°32' E 009°60'0 0.0
2017-Mar-20 01:31N 53°32' E 009°60'0 0.0
2017-Mar-20 00:31N 53°32' E 009°60'0 0.0
2017-Mar-19 23:34N 53°32' E 009°60'0 0.0
2017-Mar-19 22:33N 53°32' E 009°60'0 0.0
2017-Mar-19 21:33N 53°32' E 009°60'0 0.0
2017-Mar-19 20:33N 53°32' E 009°60'0 0.0
2017-Mar-19 19:33N 53°32' E 009°60'0 0.0
2017-Mar-19 18:33N 53°32' E 009°60'0 0.0
2017-Mar-19 17:33N 53°32' E 009°60'3 3.1
2017-Mar-19 16:33N 53°32' E 009°55'1211.7
2017-Mar-19 15:34N 53°36' E 009°36'1212.4
2017-Mar-19 14:33N 53°46' E 009°24'1111.4
2017-Mar-19 13:33N 53°53' E 009°08'1313.5
2017-Mar-19 12:33N 53°51' E 008°45'1313.3
2017-Mar-19 11:33N 53°59' E 008°27'1414.4
2017-Mar-19 10:33N 53°59' E 008°02'1010.3
2017-Mar-19 09:33N 54°01' E 007°45'0 0.5
2017-Mar-19 08:33N 54°00' E 007°45'2 1.5
2017-Mar-19 07:33N 53°59' E 007°45'9 9.0
2017-Mar-19 06:33N 53°55' E 007°31'8311.0
2017-Mar-18 23:04N 53°32' E 005°17'712.6
2017-Mar-18 22:32N 53°30' E 005°06'2512.3
2017-Mar-18 20:32N 53°14' E 004°35'1313.1
2017-Mar-18 19:33N 53°03' E 004°24'1312.8
2017-Mar-18 18:33N 52°52' E 004°15'1312.6
2017-Mar-18 17:33N 52°41' E 004°03'1212.0
2017-Mar-18 16:33N 52°30' E 003°55'1111.4
2017-Mar-18 15:33N 52°19' E 003°52'1110.6
2017-Mar-18 14:33N 52°09' E 003°54'9 8.9
2017-Mar-18 13:33N 52°00' E 004°00'3 2.9
2017-Mar-18 12:33N 51°58' E 003°60'0 0.4
2017-Mar-18 11:33N 51°57' E 004°00'0 0.0
2017-Mar-18 10:32N 51°57' E 004°00'0 0.0
2017-Mar-18 09:29N 51°57' E 004°00'0 0.0
2017-Mar-18 08:32N 51°57' E 004°00'0 0.0
2017-Mar-18 07:32N 51°57' E 004°00'0 0.0
2017-Mar-18 06:32N 51°57' E 004°00'0 0.0
2017-Mar-18 05:31N 51°57' E 004°00'0 0.0
2017-Mar-18 04:33N 51°57' E 004°00'0 0.0
2017-Mar-18 03:30N 51°57' E 004°00'0 0.0
2017-Mar-18 02:33N 51°57' E 004°00'0 0.0
2017-Mar-18 01:33N 51°57' E 004°00'0 0.0
2017-Mar-18 00:33N 51°57' E 004°00'0 0.0
2017-Mar-17 23:33N 51°57' E 004°00'0 0.0
2017-Mar-17 22:33N 51°57' E 004°00'0 0.0
2017-Mar-17 21:33N 51°57' E 004°00'0 0.0
2017-Mar-17 20:33N 51°57' E 004°00'0 0.0
2017-Mar-17 19:33N 51°57' E 004°00'0 0.0
2017-Mar-17 18:34N 51°57' E 004°00'0 0.0
2017-Mar-17 17:33N 51°57' E 004°00'0 0.0
2017-Mar-17 16:33N 51°57' E 004°00'0 0.0
2017-Mar-17 15:33N 51°57' E 004°00'0 0.0
2017-Mar-17 14:33N 51°57' E 004°00'0 0.0
2017-Mar-17 13:33N 51°57' E 004°00'3 2.6
2017-Mar-17 12:33N 51°58' E 004°04'6 6.3
2017-Mar-17 11:34N 51°59' E 003°54'1111.3
2017-Mar-17 10:33N 51°57' E 003°36'4614.0
2017-Mar-17 07:17N 51°41' E 002°27'1115.5
2017-Mar-17 06:33N 51°32' E 002°16'1615.6
2017-Mar-17 05:33N 51°17' E 002°08'1515.2
2017-Mar-17 04:33N 51°08' E 001°48'1616.3
2017-Mar-17 03:33N 50°56' E 001°30'1616.2
2017-Mar-17 02:33N 50°42' E 001°20'3215.7
2017-Mar-17 00:31N 50°26' E 000°36'1516.1
2017-Mar-16 23:33N 50°22' E 000°12'1717.1
2017-Mar-16 22:33N 50°18' W 000°13'1817.7
2017-Mar-16 21:33N 50°13' W 000°40'1919.2
2017-Mar-16 20:34N 50°08' W 001°09'1818.1
2017-Mar-16 19:33N 50°04' W 001°37'1716.9
2017-Mar-16 18:34N 49°60' W 002°02'1916.6
2017-Mar-16 17:26N 49°54' W 002°30'1516.2
2017-Mar-16 16:32N 49°50' W 002°51'1616.3
2017-Mar-16 15:33N 49°46' W 003°15'1616.1
2017-Mar-16 14:33N 49°44' W 003°40'1616.2
2017-Mar-16 13:33N 49°40' W 004°04'1616.2
2017-Mar-16 12:33N 49°36' W 004°29'1616.0
2017-Mar-16 11:33N 49°32' W 004°53'1616.3
2017-Mar-16 10:33N 49°29' W 005°17'1916.8
2017-Mar-16 09:27N 49°25' W 005°45'1617.3
2017-Mar-16 08:33N 49°22' W 006°08'1817.7
2017-Mar-16 07:33N 49°19' W 006°35'2517.9
2017-Mar-16 06:08N 49°15' W 007°14'20516.9
2017-Mar-15 18:00N 48°30' W 012°18'   180 / 81030.0 5.4 15.013.217.0

Dump ship's entire track history